WZZ9114 LWSK-EHEH
Flight info
| Callsign | WZZ9114 |
|---|---|
| Flight time | 2h 24m |
| Altitude | 34000 |
| Route | RAXAD DCT RAMAP DCT DIMSI DCT SIVLA DCT NIDLO DCT LAMSI DCT MAPOX DCT BIGGE DCT DOMEG DCT ROTEK |
| Aircraft | A321/M-SDE3FGHIRWY/LB1 |
Departure
| Time | 2026-05-06 18:14 |
|---|---|
| Airport | Skopje International Airport (LWSK) |
Arrival
| Time | 2026-05-06 20:38 |
|---|---|
| Airport | Eindhoven Airport (EHEH) |
| Time | Latitude | Longitude | Altitude | Speed | Heading |
|---|---|---|---|---|---|
| 2026-05-06 17:40 | 41.95626 | 21.62731 | 786 ft | 0 kts | 74° |
| 2026-05-06 18:04 | 41.95624 | 21.62721 | 786 ft | 2 kts | 73° |
| 2026-05-06 18:04 | 41.95620 | 21.62700 | 786 ft | 2 kts | 74° |
| 2026-05-06 18:05 | 41.95616 | 21.62679 | 786 ft | 2 kts | 75° |
| 2026-05-06 18:05 | 41.95611 | 21.62657 | 786 ft | 2 kts | 76° |
| 2026-05-06 18:05 | 41.95607 | 21.62636 | 786 ft | 2 kts | 42° |
| 2026-05-06 18:05 | 41.95594 | 21.62623 | 785 ft | 2 kts | 21° |
| 2026-05-06 18:06 | 41.95579 | 21.62618 | 785 ft | 1 kts | 349° |
| 2026-05-06 18:06 | 41.95577 | 21.62618 | 785 ft | 0 kts | 342° |
| 2026-05-06 18:09 | 41.95589 | 21.62613 | 785 ft | 4 kts | 344° |
| 2026-05-06 18:10 | 41.95636 | 21.62597 | 786 ft | 10 kts | 345° |
| 2026-05-06 18:10 | 41.95717 | 21.62569 | 786 ft | 14 kts | 345° |
| 2026-05-06 18:10 | 41.95826 | 21.62531 | 789 ft | 18 kts | 346° |
| 2026-05-06 18:10 | 41.95960 | 21.62485 | 791 ft | 22 kts | 345° |
| 2026-05-06 18:11 | 41.96113 | 21.62429 | 791 ft | 23 kts | 344° |
| 2026-05-06 18:11 | 41.96268 | 21.62374 | 792 ft | 23 kts | 345° |
| 2026-05-06 18:11 | 41.96422 | 21.62320 | 792 ft | 23 kts | 345° |
| 2026-05-06 18:11 | 41.96576 | 21.62265 | 793 ft | 23 kts | 345° |
| 2026-05-06 18:12 | 41.96730 | 21.62211 | 793 ft | 23 kts | 345° |
| 2026-05-06 18:12 | 41.96880 | 21.62152 | 793 ft | 21 kts | 329° |
| 2026-05-06 18:12 | 41.96974 | 21.61997 | 791 ft | 22 kts | 308° |
| 2026-05-06 18:12 | 41.97005 | 21.61870 | 790 ft | 8 kts | 243° |
| 2026-05-06 18:13 | 41.96958 | 21.61866 | 790 ft | 9 kts | 165° |
| 2026-05-06 18:13 | 41.96793 | 21.61924 | 792 ft | 55 kts | 165° |
| 2026-05-06 18:13 | 41.96198 | 21.62131 | 789 ft | 120 kts | 166° |
| 2026-05-06 18:13 | 41.95213 | 21.62473 | 822 ft | 167 kts | 164° |
| 2026-05-06 18:14 | 41.94103 | 21.62849 | 1520 ft | 163 kts | 167° |
| 2026-05-06 18:14 | 41.93000 | 21.63245 | 2169 ft | 165 kts | 163° |
| 2026-05-06 18:14 | 41.91875 | 21.63658 | 2673 ft | 174 kts | 165° |
| 2026-05-06 18:14 | 41.90635 | 21.64104 | 2833 ft | 194 kts | 165° |
| 2026-05-06 18:15 | 41.89278 | 21.64598 | 2955 ft | 214 kts | 166° |
| 2026-05-06 18:15 | 41.87756 | 21.65157 | 2940 ft | 240 kts | 166° |
| 2026-05-06 18:15 | 41.86067 | 21.65759 | 3239 ft | 258 kts | 167° |
| 2026-05-06 18:15 | 41.84309 | 21.66346 | 3877 ft | 263 kts | 168° |
| 2026-05-06 18:16 | 41.82519 | 21.66937 | 4585 ft | 266 kts | 168° |
| 2026-05-06 18:16 | 41.80737 | 21.67642 | 5286 ft | 270 kts | 156° |
| 2026-05-06 18:16 | 41.79212 | 21.69126 | 5979 ft | 276 kts | 133° |
| 2026-05-06 18:16 | 41.78249 | 21.71357 | 6650 ft | 281 kts | 108° |
| 2026-05-06 18:17 | 41.78049 | 21.73957 | 7304 ft | 285 kts | 83° |
| 2026-05-06 18:17 | 41.78664 | 21.76472 | 7955 ft | 289 kts | 59° |
| 2026-05-06 18:17 | 41.80016 | 21.78455 | 8580 ft | 293 kts | 34° |
| 2026-05-06 18:17 | 41.81894 | 21.79516 | 9212 ft | 295 kts | 10° |
| 2026-05-06 18:18 | 41.83897 | 21.79974 | 9896 ft | 297 kts | 9° |
| 2026-05-06 18:18 | 41.85970 | 21.80554 | 10310 ft | 310 kts | 20° |
| 2026-05-06 18:18 | 41.87973 | 21.81776 | 10441 ft | 331 kts | 29° |
| 2026-05-06 18:18 | 41.89733 | 21.83862 | 10553 ft | 350 kts | 57° |
| 2026-05-06 18:19 | 41.90835 | 21.86845 | 10752 ft | 365 kts | 69° |
| 2026-05-06 18:19 | 41.91852 | 21.90005 | 11207 ft | 371 kts | 62° |
| 2026-05-06 18:19 | 41.93175 | 21.92983 | 11795 ft | 374 kts | 56° |
| 2026-05-06 18:19 | 41.94588 | 21.95949 | 12379 ft | 378 kts | 60° |
| 2026-05-06 18:20 | 41.95665 | 21.99226 | 13009 ft | 381 kts | 73° |
| 2026-05-06 18:20 | 41.96138 | 22.02698 | 13554 ft | 386 kts | 85° |
| 2026-05-06 18:20 | 41.96347 | 22.06350 | 14121 ft | 388 kts | 86° |
| 2026-05-06 18:20 | 41.96532 | 22.09935 | 14648 ft | 392 kts | 86° |
| 2026-05-06 18:21 | 41.96721 | 22.13600 | 15178 ft | 395 kts | 85° |
| 2026-05-06 18:21 | 41.96921 | 22.17293 | 15716 ft | 398 kts | 85° |
| 2026-05-06 18:21 | 41.97144 | 22.21020 | 16251 ft | 402 kts | 83° |
| 2026-05-06 18:21 | 41.97824 | 22.24655 | 16712 ft | 404 kts | 65° |
| 2026-05-06 18:22 | 41.99259 | 22.27895 | 17191 ft | 405 kts | 48° |
| 2026-05-06 18:22 | 42.01320 | 22.30452 | 17660 ft | 405 kts | 31° |
| 2026-05-06 18:22 | 42.03833 | 22.32126 | 18147 ft | 403 kts | 14° |
| 2026-05-06 18:22 | 42.06583 | 22.32777 | 18611 ft | 401 kts | 358° |
| 2026-05-06 18:23 | 42.09334 | 22.32362 | 19054 ft | 398 kts | 343° |
| 2026-05-06 18:23 | 42.12009 | 22.31369 | 19541 ft | 399 kts | 341° |
| 2026-05-06 18:23 | 42.14686 | 22.30359 | 20014 ft | 401 kts | 341° |
| 2026-05-06 18:23 | 42.17382 | 22.29341 | 20488 ft | 403 kts | 341° |
| 2026-05-06 18:24 | 42.20083 | 22.28322 | 20953 ft | 404 kts | 341° |
| 2026-05-06 18:24 | 42.22807 | 22.27296 | 21389 ft | 407 kts | 341° |
| 2026-05-06 18:24 | 42.25537 | 22.26272 | 21811 ft | 409 kts | 341° |
| 2026-05-06 18:24 | 42.28273 | 22.25197 | 22237 ft | 409 kts | 338° |
| 2026-05-06 18:25 | 42.30864 | 22.23626 | 22668 ft | 408 kts | 328° |
| 2026-05-06 18:25 | 42.33209 | 22.21472 | 23099 ft | 407 kts | 319° |
| 2026-05-06 18:25 | 42.35338 | 22.18953 | 23489 ft | 408 kts | 317° |
| 2026-05-06 18:25 | 42.37466 | 22.16407 | 23831 ft | 409 kts | 317° |
| 2026-05-06 18:26 | 42.39602 | 22.13854 | 24164 ft | 411 kts | 317° |
| 2026-05-06 18:26 | 42.41753 | 22.11287 | 24485 ft | 413 kts | 317° |
| 2026-05-06 18:26 | 42.43919 | 22.08704 | 24817 ft | 415 kts | 317° |
| 2026-05-06 18:26 | 42.46093 | 22.06110 | 25122 ft | 418 kts | 317° |
| 2026-05-06 18:27 | 42.48277 | 22.03499 | 25444 ft | 420 kts | 317° |
| 2026-05-06 18:27 | 42.50470 | 22.00871 | 25771 ft | 422 kts | 317° |
| 2026-05-06 18:27 | 42.52670 | 21.98231 | 26088 ft | 423 kts | 316° |
| 2026-05-06 18:27 | 42.54879 | 21.95578 | 26407 ft | 425 kts | 316° |
| 2026-05-06 18:28 | 42.57096 | 21.92918 | 26703 ft | 427 kts | 317° |
| 2026-05-06 18:28 | 42.59325 | 21.90242 | 26975 ft | 428 kts | 316° |
| 2026-05-06 18:28 | 42.61559 | 21.87551 | 27269 ft | 430 kts | 316° |
| 2026-05-06 18:28 | 42.63042 | 21.85759 | 27461 ft | 431 kts | 316° |
| 2026-05-06 18:29 | 42.65288 | 21.83048 | 27739 ft | 433 kts | 316° |
| 2026-05-06 18:29 | 42.67542 | 21.80330 | 28031 ft | 434 kts | 316° |
| 2026-05-06 18:29 | 42.69804 | 21.77599 | 28307 ft | 436 kts | 316° |
| 2026-05-06 18:29 | 42.72077 | 21.74853 | 28605 ft | 438 kts | 316° |
| 2026-05-06 18:30 | 42.74359 | 21.72096 | 28931 ft | 439 kts | 316° |
| 2026-05-06 18:30 | 42.76638 | 21.69342 | 29349 ft | 437 kts | 316° |
| 2026-05-06 18:30 | 42.78903 | 21.66598 | 29766 ft | 436 kts | 316° |
| 2026-05-06 18:30 | 42.81163 | 21.63852 | 30174 ft | 434 kts | 316° |
| 2026-05-06 18:31 | 42.83412 | 21.61116 | 30525 ft | 433 kts | 316° |
| 2026-05-06 18:31 | 42.85656 | 21.58383 | 30872 ft | 432 kts | 316° |
| 2026-05-06 18:31 | 42.87896 | 21.55652 | 31205 ft | 431 kts | 316° |
| 2026-05-06 18:31 | 42.90130 | 21.52926 | 31547 ft | 430 kts | 316° |
| 2026-05-06 18:32 | 42.92355 | 21.50216 | 31871 ft | 429 kts | 316° |
| 2026-05-06 18:32 | 42.94580 | 21.47503 | 32195 ft | 428 kts | 316° |
| 2026-05-06 18:32 | 42.96800 | 21.44789 | 32483 ft | 428 kts | 316° |
| 2026-05-06 18:32 | 42.99019 | 21.42075 | 32812 ft | 428 kts | 316° |
| 2026-05-06 18:33 | 43.01234 | 21.39368 | 33143 ft | 427 kts | 316° |
| 2026-05-06 18:33 | 43.03443 | 21.36664 | 33473 ft | 425 kts | 316° |
| 2026-05-06 18:33 | 43.05640 | 21.33967 | 33788 ft | 424 kts | 316° |
| 2026-05-06 18:33 | 43.07833 | 21.31270 | 33975 ft | 424 kts | 316° |
| 2026-05-06 18:34 | 43.12197 | 21.25887 | 34003 ft | 421 kts | 316° |
| 2026-05-06 18:34 | 43.16546 | 21.20515 | 33996 ft | 421 kts | 316° |
| 2026-05-06 18:35 | 43.20893 | 21.15142 | 33998 ft | 421 kts | 316° |
| 2026-05-06 18:35 | 43.25248 | 21.09749 | 33984 ft | 422 kts | 316° |
| 2026-05-06 18:36 | 43.29612 | 21.04350 | 33992 ft | 422 kts | 316° |
| 2026-05-06 18:36 | 43.33968 | 20.98939 | 34000 ft | 423 kts | 315° |
| 2026-05-06 18:37 | 43.38324 | 20.93507 | 33987 ft | 423 kts | 315° |
| 2026-05-06 18:37 | 43.42669 | 20.88033 | 33990 ft | 423 kts | 314° |
| 2026-05-06 18:38 | 43.46789 | 20.82252 | 33989 ft | 423 kts | 311° |
| 2026-05-06 18:38 | 43.50776 | 20.76308 | 33988 ft | 423 kts | 310° |
| 2026-05-06 18:39 | 43.54795 | 20.70380 | 33992 ft | 423 kts | 310° |
| 2026-05-06 18:40 | 43.60871 | 20.61575 | 33978 ft | 422 kts | 311° |
| 2026-05-06 18:40 | 43.64918 | 20.55714 | 33974 ft | 422 kts | 311° |
| 2026-05-06 18:41 | 43.68953 | 20.49837 | 33973 ft | 421 kts | 310° |
| 2026-05-06 18:41 | 43.72971 | 20.43959 | 33980 ft | 420 kts | 310° |
| 2026-05-06 18:42 | 43.76984 | 20.38080 | 33975 ft | 420 kts | 310° |
| 2026-05-06 18:42 | 43.80996 | 20.32187 | 33971 ft | 420 kts | 310° |
| 2026-05-06 18:43 | 43.85001 | 20.26292 | 33970 ft | 420 kts | 310° |
| 2026-05-06 18:43 | 43.89003 | 20.20397 | 33978 ft | 419 kts | 310° |
| 2026-05-06 18:44 | 43.92996 | 20.14512 | 33974 ft | 418 kts | 309° |
| 2026-05-06 18:44 | 43.96970 | 20.08621 | 33980 ft | 418 kts | 309° |
| 2026-05-06 18:45 | 44.00945 | 20.02726 | 33979 ft | 418 kts | 309° |
| 2026-05-06 18:45 | 44.04921 | 19.96826 | 33983 ft | 418 kts | 309° |
| 2026-05-06 18:46 | 44.08891 | 19.90908 | 33973 ft | 417 kts | 309° |
| 2026-05-06 18:46 | 44.12851 | 19.84999 | 33970 ft | 417 kts | 309° |
| 2026-05-06 18:47 | 44.16804 | 19.79092 | 33970 ft | 417 kts | 309° |
| 2026-05-06 18:47 | 44.20750 | 19.73167 | 33963 ft | 417 kts | 309° |
| 2026-05-06 18:48 | 44.24689 | 19.67243 | 33972 ft | 417 kts | 308° |
| 2026-05-06 18:48 | 44.28635 | 19.61316 | 33980 ft | 416 kts | 308° |
| 2026-05-06 18:49 | 44.32569 | 19.55391 | 33974 ft | 415 kts | 308° |
| 2026-05-06 18:49 | 44.36490 | 19.49470 | 33973 ft | 414 kts | 308° |
| 2026-05-06 18:50 | 44.40394 | 19.43549 | 33991 ft | 414 kts | 307° |
| 2026-05-06 18:50 | 44.44295 | 19.37626 | 33979 ft | 414 kts | 307° |
| 2026-05-06 18:51 | 44.48201 | 19.31703 | 33973 ft | 414 kts | 307° |
| 2026-05-06 18:51 | 44.52090 | 19.25774 | 33969 ft | 413 kts | 307° |
| 2026-05-06 18:52 | 44.55973 | 19.19838 | 33968 ft | 413 kts | 307° |
| 2026-05-06 18:52 | 44.59869 | 19.13932 | 33986 ft | 412 kts | 307° |
| 2026-05-06 18:53 | 44.63816 | 19.08086 | 33971 ft | 412 kts | 307° |
| 2026-05-06 18:53 | 44.67765 | 19.02249 | 33962 ft | 412 kts | 307° |
| 2026-05-06 18:54 | 44.71697 | 18.96392 | 33961 ft | 412 kts | 307° |
| 2026-05-06 18:54 | 44.75620 | 18.90511 | 33954 ft | 412 kts | 307° |
| 2026-05-06 18:55 | 44.79538 | 18.84623 | 33956 ft | 412 kts | 308° |
| 2026-05-06 18:55 | 44.83463 | 18.78714 | 33917 ft | 414 kts | 308° |
| 2026-05-06 18:56 | 44.87403 | 18.72770 | 33929 ft | 416 kts | 308° |
| 2026-05-06 18:56 | 44.91360 | 18.66796 | 33925 ft | 417 kts | 308° |
| 2026-05-06 18:57 | 44.95321 | 18.60803 | 33932 ft | 418 kts | 308° |
| 2026-05-06 18:57 | 44.99283 | 18.54792 | 33947 ft | 418 kts | 308° |
| 2026-05-06 18:58 | 45.03244 | 18.48774 | 33946 ft | 418 kts | 308° |
| 2026-05-06 18:58 | 45.07206 | 18.42743 | 33957 ft | 419 kts | 308° |
| 2026-05-06 18:59 | 45.11187 | 18.36698 | 33937 ft | 421 kts | 310° |
| 2026-05-06 18:59 | 45.15420 | 18.30898 | 33940 ft | 425 kts | 313° |
| 2026-05-06 19:00 | 45.19792 | 18.25219 | 33936 ft | 427 kts | 313° |
| 2026-05-06 19:00 | 45.24143 | 18.19462 | 33938 ft | 428 kts | 312° |
| 2026-05-06 19:01 | 45.28457 | 18.13631 | 33944 ft | 428 kts | 312° |
| 2026-05-06 19:01 | 45.32735 | 18.07807 | 33950 ft | 429 kts | 312° |
| 2026-05-06 19:02 | 45.37046 | 18.01930 | 33951 ft | 430 kts | 311° |
| 2026-05-06 19:02 | 45.41375 | 17.96045 | 33948 ft | 430 kts | 312° |
| 2026-05-06 19:03 | 45.45702 | 17.90158 | 33955 ft | 431 kts | 311° |
| 2026-05-06 19:03 | 45.50035 | 17.84246 | 33957 ft | 431 kts | 311° |
| 2026-05-06 19:04 | 45.54358 | 17.78329 | 33966 ft | 431 kts | 312° |
| 2026-05-06 19:04 | 45.58708 | 17.72350 | 33965 ft | 432 kts | 312° |
| 2026-05-06 19:05 | 45.63011 | 17.66436 | 33959 ft | 432 kts | 312° |
| 2026-05-06 19:05 | 45.67348 | 17.60466 | 33958 ft | 433 kts | 312° |
| 2026-05-06 19:06 | 45.71682 | 17.54480 | 33955 ft | 433 kts | 312° |
| 2026-05-06 19:06 | 45.76016 | 17.48476 | 33975 ft | 434 kts | 312° |
| 2026-05-06 19:07 | 45.80346 | 17.42463 | 33969 ft | 433 kts | 312° |
| 2026-05-06 19:07 | 45.84670 | 17.36445 | 33968 ft | 433 kts | 312° |
| 2026-05-06 19:08 | 45.88993 | 17.30408 | 33965 ft | 433 kts | 312° |
| 2026-05-06 19:08 | 45.92582 | 17.25380 | 33957 ft | 433 kts | 312° |
| 2026-05-06 19:09 | 45.96900 | 17.19326 | 33974 ft | 433 kts | 311° |
| 2026-05-06 19:09 | 46.01217 | 17.13277 | 33966 ft | 433 kts | 311° |
| 2026-05-06 19:10 | 46.05531 | 17.07221 | 33960 ft | 433 kts | 311° |
| 2026-05-06 19:10 | 46.09831 | 17.01163 | 33952 ft | 433 kts | 311° |
| 2026-05-06 19:11 | 46.14129 | 16.95092 | 33942 ft | 432 kts | 311° |
| 2026-05-06 19:11 | 46.18422 | 16.89006 | 33938 ft | 433 kts | 311° |
| 2026-05-06 19:12 | 46.22710 | 16.82904 | 33931 ft | 433 kts | 311° |
| 2026-05-06 19:12 | 46.27003 | 16.76801 | 33926 ft | 433 kts | 311° |
| 2026-05-06 19:13 | 46.31293 | 16.70680 | 33921 ft | 433 kts | 311° |
| 2026-05-06 19:13 | 46.35583 | 16.64543 | 33931 ft | 433 kts | 310° |
| 2026-05-06 19:14 | 46.39872 | 16.58398 | 33929 ft | 434 kts | 310° |
| 2026-05-06 19:14 | 46.44164 | 16.52238 | 33916 ft | 434 kts | 310° |
| 2026-05-06 19:15 | 46.48427 | 16.46103 | 33908 ft | 435 kts | 310° |
| 2026-05-06 19:15 | 46.52744 | 16.39869 | 33907 ft | 435 kts | 310° |
| 2026-05-06 19:16 | 46.57034 | 16.33661 | 33917 ft | 435 kts | 310° |
| 2026-05-06 19:16 | 46.61303 | 16.27477 | 33907 ft | 436 kts | 310° |
| 2026-05-06 19:17 | 46.65604 | 16.21239 | 33904 ft | 437 kts | 310° |
| 2026-05-06 19:17 | 46.69898 | 16.14982 | 33900 ft | 437 kts | 310° |
| 2026-05-06 19:18 | 46.74178 | 16.08708 | 33897 ft | 437 kts | 310° |
| 2026-05-06 19:18 | 46.78464 | 16.02424 | 33890 ft | 437 kts | 310° |
| 2026-05-06 19:19 | 46.82834 | 15.96246 | 33889 ft | 439 kts | 313° |
| 2026-05-06 19:19 | 46.87546 | 15.90427 | 33881 ft | 441 kts | 315° |
| 2026-05-06 19:20 | 46.92298 | 15.84754 | 33890 ft | 441 kts | 315° |
| 2026-05-06 19:20 | 46.96958 | 15.79013 | 33884 ft | 440 kts | 314° |
| 2026-05-06 19:21 | 47.01602 | 15.73156 | 33892 ft | 441 kts | 313° |
| 2026-05-06 19:21 | 47.06250 | 15.67274 | 33885 ft | 442 kts | 314° |
| 2026-05-06 19:22 | 47.10912 | 15.61381 | 33883 ft | 443 kts | 314° |
| 2026-05-06 19:22 | 47.15581 | 15.55488 | 33880 ft | 443 kts | 314° |
| 2026-05-06 19:23 | 47.20256 | 15.49580 | 33878 ft | 443 kts | 313° |
| 2026-05-06 19:23 | 47.24921 | 15.43644 | 33895 ft | 443 kts | 313° |
| 2026-05-06 19:24 | 47.29612 | 15.37672 | 33880 ft | 444 kts | 313° |
| 2026-05-06 19:24 | 47.34245 | 15.31768 | 33872 ft | 444 kts | 313° |
| 2026-05-06 19:25 | 47.38913 | 15.25807 | 33868 ft | 444 kts | 313° |
| 2026-05-06 19:25 | 47.43575 | 15.19830 | 33878 ft | 444 kts | 312° |
| 2026-05-06 19:26 | 47.48234 | 15.13848 | 33846 ft | 442 kts | 311° |
| 2026-05-06 19:26 | 47.52848 | 15.07910 | 33845 ft | 439 kts | 311° |
| 2026-05-06 19:27 | 47.57439 | 15.01974 | 33846 ft | 438 kts | 311° |
| 2026-05-06 19:27 | 47.62018 | 14.96040 | 33828 ft | 438 kts | 311° |
| 2026-05-06 19:28 | 47.66604 | 14.90099 | 33816 ft | 438 kts | 311° |
| 2026-05-06 19:28 | 47.71188 | 14.84136 | 33817 ft | 438 kts | 310° |
| 2026-05-06 19:29 | 47.75776 | 14.78136 | 33770 ft | 441 kts | 310° |
| 2026-05-06 19:29 | 47.80392 | 14.72091 | 33752 ft | 443 kts | 310° |
| 2026-05-06 19:30 | 47.85032 | 14.66017 | 33745 ft | 444 kts | 310° |
| 2026-05-06 19:30 | 47.89672 | 14.59926 | 33741 ft | 445 kts | 310° |
| 2026-05-06 19:31 | 47.94307 | 14.53823 | 33756 ft | 445 kts | 310° |
| 2026-05-06 19:31 | 48.01272 | 14.44632 | 33755 ft | 446 kts | 310° |
| 2026-05-06 19:32 | 48.05926 | 14.38472 | 33792 ft | 447 kts | 310° |
| 2026-05-06 19:32 | 48.10578 | 14.32285 | 33816 ft | 448 kts | 310° |
| 2026-05-06 19:33 | 48.15226 | 14.26094 | 33841 ft | 448 kts | 310° |
| 2026-05-06 19:33 | 48.19883 | 14.19882 | 33878 ft | 448 kts | 310° |
| 2026-05-06 19:34 | 48.24533 | 14.13667 | 33862 ft | 447 kts | 310° |
| 2026-05-06 19:34 | 48.29178 | 14.07442 | 33857 ft | 447 kts | 310° |
| 2026-05-06 19:35 | 48.33806 | 14.01207 | 33773 ft | 447 kts | 310° |
| 2026-05-06 19:35 | 48.38429 | 13.94953 | 33773 ft | 447 kts | 310° |
| 2026-05-06 19:36 | 48.43055 | 13.88705 | 33805 ft | 447 kts | 310° |
| 2026-05-06 19:36 | 48.47676 | 13.82447 | 33820 ft | 447 kts | 310° |
| 2026-05-06 19:37 | 48.52281 | 13.76178 | 33774 ft | 446 kts | 310° |
| 2026-05-06 19:37 | 48.56106 | 13.70969 | 33771 ft | 446 kts | 310° |
| 2026-05-06 19:38 | 48.61488 | 13.63614 | 33788 ft | 446 kts | 310° |
| 2026-05-06 19:38 | 48.65991 | 13.57195 | 33810 ft | 441 kts | 304° |
| 2026-05-06 19:39 | 48.69991 | 13.50177 | 33816 ft | 440 kts | 303° |
| 2026-05-06 19:39 | 48.73970 | 13.43135 | 33821 ft | 440 kts | 303° |
| 2026-05-06 19:40 | 48.77940 | 13.36080 | 33815 ft | 440 kts | 303° |
| 2026-05-06 19:40 | 48.81916 | 13.29012 | 33806 ft | 441 kts | 303° |
| 2026-05-06 19:41 | 48.85900 | 13.21918 | 33833 ft | 442 kts | 303° |
| 2026-05-06 19:41 | 48.89868 | 13.14847 | 33801 ft | 443 kts | 303° |
| 2026-05-06 19:42 | 48.93865 | 13.07693 | 33794 ft | 444 kts | 303° |
| 2026-05-06 19:42 | 48.97879 | 13.00482 | 33787 ft | 444 kts | 303° |
| 2026-05-06 19:43 | 49.01852 | 12.93330 | 33795 ft | 445 kts | 303° |
| 2026-05-06 19:43 | 49.05843 | 12.86122 | 33804 ft | 445 kts | 303° |
| 2026-05-06 19:44 | 49.09835 | 12.78907 | 33807 ft | 444 kts | 303° |
| 2026-05-06 19:44 | 49.13803 | 12.71702 | 33805 ft | 444 kts | 303° |
| 2026-05-06 19:45 | 49.17779 | 12.64466 | 33811 ft | 444 kts | 303° |
| 2026-05-06 19:45 | 49.21746 | 12.57225 | 33802 ft | 444 kts | 303° |
| 2026-05-06 19:46 | 49.25715 | 12.49967 | 33844 ft | 445 kts | 302° |
| 2026-05-06 19:46 | 49.29682 | 12.42686 | 33810 ft | 446 kts | 302° |
| 2026-05-06 19:47 | 49.33645 | 12.35388 | 33820 ft | 445 kts | 302° |
| 2026-05-06 19:47 | 49.37608 | 12.28085 | 33825 ft | 445 kts | 302° |
| 2026-05-06 19:48 | 49.41564 | 12.20764 | 33814 ft | 445 kts | 302° |
| 2026-05-06 19:48 | 49.45513 | 12.13444 | 33836 ft | 445 kts | 302° |
| 2026-05-06 19:49 | 49.49458 | 12.06091 | 33797 ft | 446 kts | 302° |
| 2026-05-06 19:49 | 49.53412 | 11.98721 | 33789 ft | 447 kts | 302° |
| 2026-05-06 19:50 | 49.57366 | 11.91318 | 33789 ft | 447 kts | 302° |
| 2026-05-06 19:50 | 49.60654 | 11.85148 | 33811 ft | 448 kts | 302° |
| 2026-05-06 19:51 | 49.64610 | 11.77721 | 33804 ft | 448 kts | 302° |
| 2026-05-06 19:51 | 49.68561 | 11.70280 | 33809 ft | 449 kts | 302° |
| 2026-05-06 19:52 | 49.72521 | 11.62787 | 33801 ft | 450 kts | 302° |
| 2026-05-06 19:52 | 49.76486 | 11.55263 | 33801 ft | 451 kts | 302° |
| 2026-05-06 19:53 | 49.80446 | 11.47732 | 33802 ft | 451 kts | 302° |
| 2026-05-06 19:53 | 49.84401 | 11.40166 | 33813 ft | 452 kts | 302° |
| 2026-05-06 19:54 | 49.88350 | 11.32595 | 33835 ft | 452 kts | 303° |
| 2026-05-06 19:54 | 49.92303 | 11.25022 | 33828 ft | 451 kts | 303° |
| 2026-05-06 19:55 | 49.96246 | 11.17454 | 33826 ft | 451 kts | 303° |
| 2026-05-06 19:55 | 50.00163 | 11.09918 | 33821 ft | 451 kts | 303° |
| 2026-05-06 19:56 | 50.04089 | 11.02316 | 33819 ft | 450 kts | 302° |
| 2026-05-06 19:56 | 50.07999 | 10.94701 | 33817 ft | 451 kts | 303° |
| 2026-05-06 19:57 | 50.11923 | 10.87048 | 33806 ft | 452 kts | 303° |
| 2026-05-06 19:57 | 50.15852 | 10.79379 | 33815 ft | 453 kts | 303° |
| 2026-05-06 19:58 | 50.19776 | 10.71689 | 33810 ft | 453 kts | 303° |
| 2026-05-06 19:58 | 50.23703 | 10.63980 | 33807 ft | 454 kts | 303° |
| 2026-05-06 19:59 | 50.27630 | 10.56254 | 33817 ft | 454 kts | 303° |
| 2026-05-06 19:59 | 50.31554 | 10.48510 | 33814 ft | 454 kts | 303° |
| 2026-05-06 20:00 | 50.35474 | 10.40752 | 33812 ft | 454 kts | 302° |
| 2026-05-06 20:00 | 50.39384 | 10.32973 | 33811 ft | 454 kts | 302° |
| 2026-05-06 20:01 | 50.43288 | 10.25182 | 33816 ft | 454 kts | 302° |
| 2026-05-06 20:01 | 50.47216 | 10.17329 | 33836 ft | 454 kts | 302° |
| 2026-05-06 20:02 | 50.51110 | 10.09530 | 33836 ft | 454 kts | 302° |
| 2026-05-06 20:02 | 50.54974 | 10.01767 | 33836 ft | 454 kts | 302° |
| 2026-05-06 20:03 | 50.58851 | 9.93951 | 33834 ft | 453 kts | 302° |
| 2026-05-06 20:03 | 50.62715 | 9.86119 | 33838 ft | 453 kts | 302° |
| 2026-05-06 20:04 | 50.66568 | 9.78290 | 33853 ft | 453 kts | 303° |
| 2026-05-06 20:04 | 50.70428 | 9.70430 | 33848 ft | 453 kts | 303° |
| 2026-05-06 20:05 | 50.74284 | 9.62558 | 33847 ft | 453 kts | 303° |
| 2026-05-06 20:05 | 50.78130 | 9.54679 | 33851 ft | 453 kts | 303° |
| 2026-05-06 20:06 | 50.81979 | 9.46782 | 33850 ft | 453 kts | 303° |
| 2026-05-06 20:06 | 50.85814 | 9.38879 | 33871 ft | 453 kts | 304° |
| 2026-05-06 20:07 | 50.89640 | 9.30973 | 33706 ft | 451 kts | 304° |
| 2026-05-06 20:07 | 50.91543 | 9.27035 | 33417 ft | 450 kts | 304° |
| 2026-05-06 20:07 | 50.93441 | 9.23101 | 33135 ft | 449 kts | 304° |
| 2026-05-06 20:08 | 50.95340 | 9.19156 | 32867 ft | 450 kts | 304° |
| 2026-05-06 20:08 | 50.97237 | 9.15206 | 32604 ft | 450 kts | 304° |
| 2026-05-06 20:08 | 50.99135 | 9.11249 | 32335 ft | 450 kts | 304° |
| 2026-05-06 20:08 | 51.01028 | 9.07296 | 32070 ft | 450 kts | 304° |
| 2026-05-06 20:09 | 51.02919 | 9.03343 | 31839 ft | 450 kts | 304° |
| 2026-05-06 20:09 | 51.04811 | 8.99389 | 31838 ft | 450 kts | 304° |
| 2026-05-06 20:09 | 51.08597 | 8.91457 | 31844 ft | 450 kts | 304° |
| 2026-05-06 20:10 | 51.12371 | 8.83505 | 31848 ft | 450 kts | 303° |
| 2026-05-06 20:10 | 51.16200 | 8.75606 | 31858 ft | 451 kts | 305° |
| 2026-05-06 20:11 | 51.20164 | 8.67852 | 31858 ft | 451 kts | 306° |
| 2026-05-06 20:11 | 51.24138 | 8.60101 | 31860 ft | 451 kts | 306° |
| 2026-05-06 20:12 | 51.28064 | 8.52313 | 31870 ft | 449 kts | 306° |
| 2026-05-06 20:12 | 51.31948 | 8.44529 | 31870 ft | 448 kts | 306° |
| 2026-05-06 20:13 | 51.35745 | 8.36627 | 31875 ft | 448 kts | 303° |
| 2026-05-06 20:13 | 51.39408 | 8.28544 | 31873 ft | 447 kts | 303° |
| 2026-05-06 20:14 | 51.43050 | 8.20451 | 31882 ft | 448 kts | 303° |
| 2026-05-06 20:14 | 51.46724 | 8.12394 | 31883 ft | 448 kts | 304° |
| 2026-05-06 20:15 | 51.50415 | 8.04321 | 31888 ft | 449 kts | 303° |
| 2026-05-06 20:15 | 51.54089 | 7.96217 | 31902 ft | 448 kts | 304° |
| 2026-05-06 20:16 | 51.57746 | 7.88125 | 31891 ft | 446 kts | 303° |
| 2026-05-06 20:16 | 51.61393 | 7.80042 | 31894 ft | 446 kts | 303° |
| 2026-05-06 20:17 | 51.65032 | 7.71952 | 31902 ft | 446 kts | 303° |
| 2026-05-06 20:17 | 51.66850 | 7.67901 | 31706 ft | 446 kts | 303° |
| 2026-05-06 20:17 | 51.68466 | 7.63657 | 31445 ft | 443 kts | 294° |
| 2026-05-06 20:18 | 51.69610 | 7.59065 | 31192 ft | 441 kts | 284° |
| 2026-05-06 20:18 | 51.70280 | 7.54269 | 30936 ft | 439 kts | 276° |
| 2026-05-06 20:18 | 51.70482 | 7.49368 | 30625 ft | 437 kts | 268° |
| 2026-05-06 20:18 | 51.70318 | 7.44446 | 29704 ft | 442 kts | 264° |
| 2026-05-06 20:19 | 51.70089 | 7.39545 | 29263 ft | 434 kts | 264° |
| 2026-05-06 20:19 | 51.69846 | 7.34717 | 28687 ft | 430 kts | 264° |
| 2026-05-06 20:19 | 51.69599 | 7.29943 | 28131 ft | 425 kts | 264° |
| 2026-05-06 20:19 | 51.69354 | 7.25224 | 27586 ft | 420 kts | 264° |
| 2026-05-06 20:20 | 51.69113 | 7.20547 | 27031 ft | 416 kts | 264° |
| 2026-05-06 20:20 | 51.68877 | 7.15923 | 26494 ft | 413 kts | 264° |
| 2026-05-06 20:20 | 51.68644 | 7.11332 | 25951 ft | 409 kts | 264° |
| 2026-05-06 20:20 | 51.68415 | 7.06780 | 25414 ft | 406 kts | 265° |
| 2026-05-06 20:21 | 51.68190 | 7.02263 | 24888 ft | 402 kts | 265° |
| 2026-05-06 20:21 | 51.67964 | 6.97790 | 24363 ft | 400 kts | 264° |
| 2026-05-06 20:21 | 51.67736 | 6.93339 | 23845 ft | 397 kts | 264° |
| 2026-05-06 20:21 | 51.67506 | 6.88923 | 23315 ft | 395 kts | 264° |
| 2026-05-06 20:22 | 51.67275 | 6.84538 | 22787 ft | 391 kts | 264° |
| 2026-05-06 20:22 | 51.67045 | 6.80194 | 22301 ft | 387 kts | 264° |
| 2026-05-06 20:22 | 51.66814 | 6.75896 | 21836 ft | 384 kts | 264° |
| 2026-05-06 20:22 | 51.66581 | 6.71631 | 21366 ft | 381 kts | 264° |
| 2026-05-06 20:23 | 51.66350 | 6.67400 | 20913 ft | 377 kts | 265° |
| 2026-05-06 20:23 | 51.66121 | 6.63208 | 20461 ft | 374 kts | 265° |
| 2026-05-06 20:23 | 51.65893 | 6.59057 | 20011 ft | 371 kts | 265° |
| 2026-05-06 20:23 | 51.65665 | 6.54940 | 19572 ft | 367 kts | 265° |
| 2026-05-06 20:24 | 51.65437 | 6.50866 | 19111 ft | 365 kts | 265° |
| 2026-05-06 20:24 | 51.65208 | 6.46814 | 18668 ft | 362 kts | 265° |
| 2026-05-06 20:24 | 51.64980 | 6.42795 | 18201 ft | 359 kts | 265° |
| 2026-05-06 20:24 | 51.64752 | 6.38801 | 17695 ft | 356 kts | 265° |
| 2026-05-06 20:25 | 51.64529 | 6.34848 | 17228 ft | 353 kts | 265° |
| 2026-05-06 20:25 | 51.64309 | 6.30931 | 16756 ft | 349 kts | 265° |
| 2026-05-06 20:25 | 51.64087 | 6.27061 | 16273 ft | 346 kts | 265° |
| 2026-05-06 20:25 | 51.63863 | 6.23211 | 15805 ft | 343 kts | 265° |
| 2026-05-06 20:26 | 51.63637 | 6.19403 | 15337 ft | 341 kts | 265° |
| 2026-05-06 20:26 | 51.63412 | 6.15614 | 14861 ft | 339 kts | 265° |
| 2026-05-06 20:26 | 51.63123 | 6.11862 | 14389 ft | 337 kts | 259° |
| 2026-05-06 20:26 | 51.62454 | 6.08255 | 13915 ft | 337 kts | 249° |
| 2026-05-06 20:27 | 51.61400 | 6.04896 | 13399 ft | 337 kts | 239° |
| 2026-05-06 20:27 | 51.59978 | 6.01913 | 12918 ft | 336 kts | 228° |
| 2026-05-06 20:27 | 51.58243 | 5.99417 | 12447 ft | 334 kts | 219° |
| 2026-05-06 20:27 | 51.56419 | 5.97126 | 11968 ft | 332 kts | 219° |
| 2026-05-06 20:28 | 51.54602 | 5.94860 | 11511 ft | 330 kts | 219° |
| 2026-05-06 20:28 | 51.52793 | 5.92606 | 11051 ft | 328 kts | 219° |
| 2026-05-06 20:28 | 51.50996 | 5.90366 | 10595 ft | 326 kts | 219° |
| 2026-05-06 20:28 | 51.49372 | 5.87934 | 10445 ft | 313 kts | 226° |
| 2026-05-06 20:29 | 51.47870 | 5.85488 | 10320 ft | 302 kts | 226° |
| 2026-05-06 20:29 | 51.46409 | 5.83123 | 10137 ft | 294 kts | 226° |
| 2026-05-06 20:29 | 51.44948 | 5.80756 | 10087 ft | 302 kts | 226° |
| 2026-05-06 20:29 | 51.43466 | 5.78357 | 9978 ft | 303 kts | 226° |
| 2026-05-06 20:30 | 51.41980 | 5.75955 | 9661 ft | 306 kts | 226° |
| 2026-05-06 20:30 | 51.39493 | 5.71956 | 8860 ft | 306 kts | 226° |
| 2026-05-06 20:30 | 51.38001 | 5.69562 | 8557 ft | 300 kts | 226° |
| 2026-05-06 20:31 | 51.36536 | 5.67212 | 8224 ft | 295 kts | 226° |
| 2026-05-06 20:31 | 51.35103 | 5.64890 | 7598 ft | 292 kts | 229° |
| 2026-05-06 20:31 | 51.33961 | 5.62239 | 6995 ft | 288 kts | 245° |
| 2026-05-06 20:31 | 51.33277 | 5.59279 | 6520 ft | 280 kts | 255° |
| 2026-05-06 20:32 | 51.32515 | 5.55345 | 5942 ft | 276 kts | 254° |
| 2026-05-06 20:32 | 51.32133 | 5.53400 | 5680 ft | 278 kts | 254° |
| 2026-05-06 20:32 | 51.31550 | 5.50454 | 5250 ft | 279 kts | 254° |
| 2026-05-06 20:32 | 51.30962 | 5.47489 | 4843 ft | 280 kts | 254° |
| 2026-05-06 20:33 | 51.30376 | 5.44522 | 4442 ft | 280 kts | 254° |
| 2026-05-06 20:33 | 51.29790 | 5.41543 | 3942 ft | 284 kts | 254° |
| 2026-05-06 20:33 | 51.29241 | 5.38546 | 3457 ft | 276 kts | 262° |
| 2026-05-06 20:33 | 51.29180 | 5.35551 | 3046 ft | 263 kts | 282° |
| 2026-05-06 20:34 | 51.29670 | 5.32890 | 2849 ft | 244 kts | 299° |
| 2026-05-06 20:34 | 51.30590 | 5.30688 | 2555 ft | 231 kts | 318° |
| 2026-05-06 20:34 | 51.31799 | 5.29112 | 2481 ft | 220 kts | 334° |
| 2026-05-06 20:34 | 51.33126 | 5.28175 | 2380 ft | 205 kts | 348° |
| 2026-05-06 20:35 | 51.34507 | 5.27820 | 2214 ft | 199 kts | 2° |
| 2026-05-06 20:35 | 51.35833 | 5.28009 | 2039 ft | 184 kts | 14° |
| 2026-05-06 20:35 | 51.36993 | 5.28633 | 1805 ft | 170 kts | 27° |
| 2026-05-06 20:35 | 51.37957 | 5.29567 | 1592 ft | 155 kts | 36° |
| 2026-05-06 20:36 | 51.38813 | 5.30520 | 1430 ft | 146 kts | 35° |
| 2026-05-06 20:36 | 51.39636 | 5.31437 | 1225 ft | 143 kts | 35° |
| 2026-05-06 20:36 | 51.40450 | 5.32346 | 1027 ft | 142 kts | 34° |
| 2026-05-06 20:36 | 51.41262 | 5.33258 | 812 ft | 143 kts | 34° |
| 2026-05-06 20:37 | 51.42084 | 5.34180 | 617 ft | 144 kts | 35° |
| 2026-05-06 20:37 | 51.42914 | 5.35100 | 400 ft | 146 kts | 34° |
| 2026-05-06 20:37 | 51.43750 | 5.36033 | 203 ft | 146 kts | 35° |
| 2026-05-06 20:37 | 51.44571 | 5.36955 | 73 ft | 135 kts | 35° |
| 2026-05-06 20:38 | 51.45202 | 5.37663 | 64 ft | 86 kts | 35° |
| 2026-05-06 20:38 | 51.45547 | 5.38050 | 72 ft | 43 kts | 35° |
| 2026-05-06 20:38 | 51.45757 | 5.38287 | 74 ft | 34 kts | 35° |
| 2026-05-06 20:38 | 51.45885 | 5.38432 | 66 ft | 13 kts | 36° |
| 2026-05-06 20:39 | 51.45905 | 5.38512 | 69 ft | 9 kts | 110° |
| 2026-05-06 20:39 | 51.45866 | 5.38609 | 70 ft | 12 kts | 125° |
| 2026-05-06 20:39 | 51.45818 | 5.38718 | 72 ft | 8 kts | 125° |
| 2026-05-06 20:39 | 51.45814 | 5.38728 | 73 ft | 0 kts | 125° |
| 2026-05-06 20:40 | 51.45805 | 5.38749 | 69 ft | 5 kts | 125° |
| 2026-05-06 20:40 | 51.45766 | 5.38803 | 68 ft | 9 kts | 147° |
| 2026-05-06 20:41 | 51.45726 | 5.38880 | 72 ft | 6 kts | 124° |
| 2026-05-06 20:41 | 51.45718 | 5.38899 | 69 ft | 0 kts | 125° |